EZY29UG LEAL-EGGP
Flight info
| Callsign | EZY29UG |
|---|---|
| Flight time | 2h 23m |
| Altitude | 36000 |
| Route | MITOS N608 COMPI Y90 USKAR N863 GIROM DCT AGN DCT SECHE DCT UVELI DCT CNA DCT MANAK DCT MUREL DCT NOZHU DCT SHIRI DCT TOJAQ DCT EPACE DCT ACCOP P16 PEPZE |
| Aircraft | A320/M-SDE3FGHIRWY/LB1 |
Departure
| Time | 2026-05-06 15:35 |
|---|---|
| Airport | Alicante-Elche Miguel Hernández Airport (LEAL) |
Arrival
| Time | 2026-05-06 17:58 |
|---|---|
| Airport | Liverpool John Lennon Airport (EGGP) |
| Time | Latitude | Longitude | Altitude | Speed | Heading |
|---|---|---|---|---|---|
| 2026-05-06 15:13 | 38.28551 | -0.55403 | 95 ft | 0 kts | 10° |
| 2026-05-06 15:25 | 38.28539 | -0.55406 | 95 ft | 4 kts | 8° |
| 2026-05-06 15:25 | 38.28512 | -0.55410 | 94 ft | 4 kts | 1° |
| 2026-05-06 15:25 | 38.28485 | -0.55407 | 95 ft | 4 kts | 341° |
| 2026-05-06 15:25 | 38.28468 | -0.55392 | 96 ft | 2 kts | 283° |
| 2026-05-06 15:26 | 38.28467 | -0.55389 | 96 ft | 1 kts | 280° |
| 2026-05-06 15:29 | 38.28467 | -0.55390 | 96 ft | 0 kts | 280° |
| 2026-05-06 15:29 | 38.28467 | -0.55392 | 96 ft | 0 kts | 280° |
| 2026-05-06 15:29 | 38.28468 | -0.55398 | 96 ft | 1 kts | 280° |
| 2026-05-06 15:29 | 38.28470 | -0.55412 | 95 ft | 2 kts | 280° |
| 2026-05-06 15:30 | 38.28474 | -0.55439 | 97 ft | 4 kts | 280° |
| 2026-05-06 15:30 | 38.28480 | -0.55486 | 97 ft | 7 kts | 280° |
| 2026-05-06 15:30 | 38.28489 | -0.55560 | 98 ft | 11 kts | 268° |
| 2026-05-06 15:30 | 38.28424 | -0.55603 | 99 ft | 14 kts | 184° |
| 2026-05-06 15:31 | 38.28380 | -0.55705 | 96 ft | 18 kts | 279° |
| 2026-05-06 15:31 | 38.28402 | -0.55863 | 98 ft | 18 kts | 279° |
| 2026-05-06 15:31 | 38.28422 | -0.56009 | 97 ft | 16 kts | 280° |
| 2026-05-06 15:32 | 38.28469 | -0.56350 | 106 ft | 19 kts | 278° |
| 2026-05-06 15:32 | 38.28488 | -0.56489 | 110 ft | 13 kts | 281° |
| 2026-05-06 15:32 | 38.28501 | -0.56576 | 112 ft | 8 kts | 282° |
| 2026-05-06 15:32 | 38.28514 | -0.56668 | 116 ft | 13 kts | 280° |
| 2026-05-06 15:33 | 38.28532 | -0.56796 | 123 ft | 17 kts | 280° |
| 2026-05-06 15:33 | 38.28555 | -0.56958 | 132 ft | 20 kts | 281° |
| 2026-05-06 15:33 | 38.28580 | -0.57148 | 140 ft | 24 kts | 280° |
| 2026-05-06 15:33 | 38.28607 | -0.57335 | 148 ft | 17 kts | 281° |
| 2026-05-06 15:34 | 38.28567 | -0.57429 | 150 ft | 12 kts | 193° |
| 2026-05-06 15:34 | 38.28489 | -0.57440 | 151 ft | 9 kts | 189° |
| 2026-05-06 15:34 | 38.28441 | -0.57423 | 152 ft | 6 kts | 125° |
| 2026-05-06 15:34 | 38.28431 | -0.57350 | 149 ft | 12 kts | 101° |
| 2026-05-06 15:35 | 38.28389 | -0.57048 | 140 ft | 68 kts | 99° |
| 2026-05-06 15:35 | 38.28269 | -0.56186 | 114 ft | 128 kts | 100° |
| 2026-05-06 15:35 | 38.28086 | -0.54890 | 300 ft | 158 kts | 100° |
| 2026-05-06 15:35 | 38.27847 | -0.53543 | 951 ft | 155 kts | 101° |
| 2026-05-06 15:36 | 38.27619 | -0.52189 | 1540 ft | 161 kts | 101° |
| 2026-05-06 15:36 | 38.27398 | -0.50698 | 1857 ft | 181 kts | 93° |
| 2026-05-06 15:36 | 38.27714 | -0.49084 | 1986 ft | 203 kts | 60° |
| 2026-05-06 15:36 | 38.28531 | -0.47501 | 2121 ft | 225 kts | 58° |
| 2026-05-06 15:37 | 38.29436 | -0.45771 | 2301 ft | 243 kts | 58° |
| 2026-05-06 15:37 | 38.30388 | -0.43958 | 2735 ft | 248 kts | 58° |
| 2026-05-06 15:37 | 38.31354 | -0.42120 | 3267 ft | 251 kts | 58° |
| 2026-05-06 15:37 | 38.32290 | -0.40228 | 3728 ft | 256 kts | 65° |
| 2026-05-06 15:38 | 38.33037 | -0.38181 | 4160 ft | 260 kts | 57° |
| 2026-05-06 15:38 | 38.34428 | -0.36685 | 4608 ft | 265 kts | 21° |
| 2026-05-06 15:38 | 38.35612 | -0.36284 | 4899 ft | 267 kts | 11° |
| 2026-05-06 15:38 | 38.37446 | -0.35812 | 5367 ft | 270 kts | 11° |
| 2026-05-06 15:39 | 38.39891 | -0.35116 | 6004 ft | 274 kts | 12° |
| 2026-05-06 15:39 | 38.41143 | -0.34725 | 6324 ft | 275 kts | 12° |
| 2026-05-06 15:39 | 38.43007 | -0.34110 | 6761 ft | 278 kts | 13° |
| 2026-05-06 15:39 | 38.44881 | -0.33465 | 7203 ft | 280 kts | 13° |
| 2026-05-06 15:40 | 38.46771 | -0.32799 | 7647 ft | 282 kts | 12° |
| 2026-05-06 15:40 | 38.48673 | -0.32121 | 8075 ft | 284 kts | 13° |
| 2026-05-06 15:40 | 38.50584 | -0.31434 | 8494 ft | 286 kts | 12° |
| 2026-05-06 15:40 | 38.52510 | -0.30739 | 8898 ft | 288 kts | 12° |
| 2026-05-06 15:41 | 38.54446 | -0.30041 | 9327 ft | 290 kts | 13° |
| 2026-05-06 15:41 | 38.56391 | -0.29339 | 9738 ft | 292 kts | 12° |
| 2026-05-06 15:41 | 38.58333 | -0.28638 | 10056 ft | 296 kts | 12° |
| 2026-05-06 15:41 | 38.60354 | -0.27913 | 10190 ft | 306 kts | 13° |
| 2026-05-06 15:42 | 38.62436 | -0.27169 | 10309 ft | 315 kts | 12° |
| 2026-05-06 15:42 | 38.64575 | -0.26403 | 10431 ft | 323 kts | 12° |
| 2026-05-06 15:42 | 38.66762 | -0.25618 | 10569 ft | 329 kts | 13° |
| 2026-05-06 15:42 | 38.68967 | -0.24822 | 10833 ft | 326 kts | 13° |
| 2026-05-06 15:43 | 38.71071 | -0.24055 | 11783 ft | 303 kts | 13° |
| 2026-05-06 15:43 | 38.73016 | -0.23343 | 12786 ft | 279 kts | 13° |
| 2026-05-06 15:43 | 38.74818 | -0.22683 | 13705 ft | 262 kts | 13° |
| 2026-05-06 15:43 | 38.76568 | -0.22049 | 14298 ft | 261 kts | 12° |
| 2026-05-06 15:44 | 38.78397 | -0.21396 | 14476 ft | 284 kts | 12° |
| 2026-05-06 15:44 | 38.80377 | -0.20695 | 14609 ft | 306 kts | 12° |
| 2026-05-06 15:44 | 38.82504 | -0.19941 | 14733 ft | 327 kts | 12° |
| 2026-05-06 15:44 | 38.84768 | -0.19130 | 14856 ft | 348 kts | 12° |
| 2026-05-06 15:45 | 38.87158 | -0.18269 | 14998 ft | 365 kts | 13° |
| 2026-05-06 15:45 | 38.89637 | -0.17370 | 15426 ft | 373 kts | 13° |
| 2026-05-06 15:45 | 38.92148 | -0.16452 | 15981 ft | 378 kts | 13° |
| 2026-05-06 15:45 | 38.94685 | -0.15522 | 16543 ft | 382 kts | 13° |
| 2026-05-06 15:46 | 38.97258 | -0.14580 | 17091 ft | 385 kts | 12° |
| 2026-05-06 15:46 | 38.99853 | -0.13633 | 17633 ft | 389 kts | 12° |
| 2026-05-06 15:46 | 39.02474 | -0.12681 | 18168 ft | 393 kts | 12° |
| 2026-05-06 15:46 | 39.05117 | -0.11719 | 18637 ft | 397 kts | 12° |
| 2026-05-06 15:47 | 39.07787 | -0.10744 | 19108 ft | 400 kts | 12° |
| 2026-05-06 15:47 | 39.10476 | -0.09762 | 19583 ft | 403 kts | 12° |
| 2026-05-06 15:47 | 39.13186 | -0.08775 | 20053 ft | 406 kts | 12° |
| 2026-05-06 15:47 | 39.15914 | -0.07778 | 20522 ft | 409 kts | 12° |
| 2026-05-06 15:48 | 39.18658 | -0.06772 | 20969 ft | 412 kts | 12° |
| 2026-05-06 15:48 | 39.21386 | -0.05771 | 21412 ft | 415 kts | 12° |
| 2026-05-06 15:48 | 39.24176 | -0.04748 | 21853 ft | 418 kts | 12° |
| 2026-05-06 15:48 | 39.26982 | -0.03723 | 22286 ft | 420 kts | 12° |
| 2026-05-06 15:49 | 39.29805 | -0.02691 | 22714 ft | 423 kts | 12° |
| 2026-05-06 15:49 | 39.32653 | -0.01649 | 23132 ft | 426 kts | 12° |
| 2026-05-06 15:49 | 39.35516 | -0.00598 | 23560 ft | 429 kts | 12° |
| 2026-05-06 15:49 | 39.38400 | 0.00463 | 23858 ft | 433 kts | 12° |
| 2026-05-06 15:50 | 39.41315 | 0.01534 | 24174 ft | 437 kts | 11° |
| 2026-05-06 15:50 | 39.44245 | 0.02610 | 24499 ft | 440 kts | 11° |
| 2026-05-06 15:50 | 39.47198 | 0.03696 | 24824 ft | 442 kts | 11° |
| 2026-05-06 15:50 | 39.50169 | 0.04793 | 25146 ft | 445 kts | 11° |
| 2026-05-06 15:51 | 39.53154 | 0.05898 | 25452 ft | 448 kts | 11° |
| 2026-05-06 15:51 | 39.56156 | 0.07010 | 25772 ft | 450 kts | 11° |
| 2026-05-06 15:51 | 39.59183 | 0.08136 | 26097 ft | 453 kts | 11° |
| 2026-05-06 15:51 | 39.62226 | 0.09266 | 26377 ft | 457 kts | 11° |
| 2026-05-06 15:52 | 39.65292 | 0.10402 | 26673 ft | 459 kts | 11° |
| 2026-05-06 15:52 | 39.68371 | 0.11542 | 26971 ft | 462 kts | 11° |
| 2026-05-06 15:52 | 39.71478 | 0.12693 | 27270 ft | 465 kts | 11° |
| 2026-05-06 15:52 | 39.74595 | 0.13849 | 27566 ft | 467 kts | 11° |
| 2026-05-06 15:53 | 39.77730 | 0.15014 | 27859 ft | 470 kts | 11° |
| 2026-05-06 15:53 | 39.80845 | 0.16176 | 28179 ft | 473 kts | 11° |
| 2026-05-06 15:53 | 39.84020 | 0.17363 | 28430 ft | 476 kts | 11° |
| 2026-05-06 15:53 | 39.87215 | 0.18558 | 28677 ft | 479 kts | 11° |
| 2026-05-06 15:54 | 39.90431 | 0.19759 | 28950 ft | 482 kts | 10° |
| 2026-05-06 15:54 | 39.93660 | 0.20964 | 29205 ft | 484 kts | 10° |
| 2026-05-06 15:54 | 39.96910 | 0.22178 | 29467 ft | 487 kts | 10° |
| 2026-05-06 15:54 | 40.00175 | 0.23401 | 29714 ft | 489 kts | 10° |
| 2026-05-06 15:55 | 40.03457 | 0.24636 | 29979 ft | 492 kts | 10° |
| 2026-05-06 15:55 | 40.06752 | 0.25875 | 30216 ft | 493 kts | 10° |
| 2026-05-06 15:55 | 40.10049 | 0.27114 | 30482 ft | 494 kts | 10° |
| 2026-05-06 15:55 | 40.13352 | 0.28358 | 30739 ft | 495 kts | 10° |
| 2026-05-06 15:56 | 40.16657 | 0.29606 | 31069 ft | 493 kts | 10° |
| 2026-05-06 15:56 | 40.19951 | 0.30850 | 31392 ft | 492 kts | 10° |
| 2026-05-06 15:56 | 40.23238 | 0.32093 | 31705 ft | 491 kts | 9° |
| 2026-05-06 15:56 | 40.26521 | 0.33333 | 32078 ft | 490 kts | 10° |
| 2026-05-06 15:57 | 40.29787 | 0.34567 | 32465 ft | 487 kts | 10° |
| 2026-05-06 15:57 | 40.33045 | 0.35799 | 32792 ft | 486 kts | 9° |
| 2026-05-06 15:57 | 40.36295 | 0.37028 | 33064 ft | 485 kts | 9° |
| 2026-05-06 15:57 | 40.39534 | 0.38252 | 33330 ft | 485 kts | 9° |
| 2026-05-06 15:58 | 40.42783 | 0.39483 | 33589 ft | 485 kts | 9° |
| 2026-05-06 15:58 | 40.46033 | 0.40720 | 33855 ft | 486 kts | 9° |
| 2026-05-06 15:58 | 40.49234 | 0.41939 | 34131 ft | 485 kts | 9° |
| 2026-05-06 15:58 | 40.52475 | 0.43177 | 34417 ft | 484 kts | 10° |
| 2026-05-06 15:59 | 40.55707 | 0.44413 | 34682 ft | 483 kts | 10° |
| 2026-05-06 15:59 | 40.58929 | 0.45646 | 34922 ft | 483 kts | 10° |
| 2026-05-06 15:59 | 40.62162 | 0.46883 | 35151 ft | 482 kts | 10° |
| 2026-05-06 15:59 | 40.65383 | 0.48118 | 35366 ft | 482 kts | 10° |
| 2026-05-06 16:00 | 40.68600 | 0.49354 | 35586 ft | 482 kts | 10° |
| 2026-05-06 16:00 | 40.71813 | 0.50590 | 35800 ft | 481 kts | 10° |
| 2026-05-06 16:00 | 40.75030 | 0.51830 | 35908 ft | 481 kts | 10° |
| 2026-05-06 16:00 | 40.78247 | 0.53070 | 35927 ft | 480 kts | 10° |
| 2026-05-06 16:01 | 40.84657 | 0.55531 | 35923 ft | 479 kts | 10° |
| 2026-05-06 16:01 | 40.91066 | 0.57995 | 35954 ft | 479 kts | 11° |
| 2026-05-06 16:02 | 40.97456 | 0.60469 | 35922 ft | 477 kts | 11° |
| 2026-05-06 16:02 | 41.03779 | 0.62927 | 35907 ft | 476 kts | 11° |
| 2026-05-06 16:03 | 41.10183 | 0.65419 | 35911 ft | 477 kts | 11° |
| 2026-05-06 16:03 | 41.16520 | 0.67890 | 35928 ft | 477 kts | 11° |
| 2026-05-06 16:04 | 41.22888 | 0.70371 | 35925 ft | 477 kts | 11° |
| 2026-05-06 16:04 | 41.29292 | 0.72530 | 35928 ft | 467 kts | 358° |
| 2026-05-06 16:05 | 41.32483 | 0.72417 | 35916 ft | 453 kts | 343° |
| 2026-05-06 16:05 | 41.35539 | 0.71532 | 35939 ft | 449 kts | 340° |
| 2026-05-06 16:05 | 41.41617 | 0.69618 | 35921 ft | 449 kts | 340° |
| 2026-05-06 16:06 | 41.47705 | 0.67688 | 35909 ft | 449 kts | 340° |
| 2026-05-06 16:06 | 41.53792 | 0.65761 | 35911 ft | 449 kts | 340° |
| 2026-05-06 16:07 | 41.59874 | 0.63843 | 35927 ft | 449 kts | 340° |
| 2026-05-06 16:07 | 41.65956 | 0.61921 | 35926 ft | 449 kts | 340° |
| 2026-05-06 16:08 | 41.71991 | 0.60007 | 35920 ft | 448 kts | 340° |
| 2026-05-06 16:08 | 41.78068 | 0.58069 | 35944 ft | 449 kts | 340° |
| 2026-05-06 16:09 | 41.84147 | 0.56130 | 35940 ft | 448 kts | 340° |
| 2026-05-06 16:09 | 41.90222 | 0.54184 | 35926 ft | 449 kts | 340° |
| 2026-05-06 16:10 | 41.96292 | 0.52246 | 35916 ft | 448 kts | 340° |
| 2026-05-06 16:10 | 42.02362 | 0.50307 | 35923 ft | 448 kts | 341° |
| 2026-05-06 16:11 | 42.08425 | 0.48372 | 35902 ft | 448 kts | 341° |
| 2026-05-06 16:11 | 42.14488 | 0.46419 | 35892 ft | 448 kts | 340° |
| 2026-05-06 16:12 | 42.20555 | 0.44451 | 35921 ft | 448 kts | 341° |
| 2026-05-06 16:12 | 42.26622 | 0.42489 | 35910 ft | 448 kts | 341° |
| 2026-05-06 16:13 | 42.32647 | 0.40539 | 35908 ft | 448 kts | 341° |
| 2026-05-06 16:13 | 42.38706 | 0.38575 | 35911 ft | 447 kts | 341° |
| 2026-05-06 16:14 | 42.44766 | 0.36603 | 35942 ft | 447 kts | 341° |
| 2026-05-06 16:14 | 42.50814 | 0.34637 | 35936 ft | 446 kts | 341° |
| 2026-05-06 16:15 | 42.56853 | 0.32674 | 35944 ft | 446 kts | 341° |
| 2026-05-06 16:15 | 42.62884 | 0.30706 | 35975 ft | 445 kts | 341° |
| 2026-05-06 16:16 | 42.68905 | 0.28723 | 35958 ft | 445 kts | 341° |
| 2026-05-06 16:16 | 42.74932 | 0.26738 | 35967 ft | 446 kts | 341° |
| 2026-05-06 16:17 | 42.80954 | 0.24753 | 35977 ft | 445 kts | 341° |
| 2026-05-06 16:17 | 42.86983 | 0.22772 | 35984 ft | 445 kts | 341° |
| 2026-05-06 16:18 | 42.92967 | 0.20803 | 35987 ft | 445 kts | 341° |
| 2026-05-06 16:18 | 42.98983 | 0.18813 | 35984 ft | 445 kts | 341° |
| 2026-05-06 16:19 | 43.05004 | 0.16813 | 36014 ft | 445 kts | 342° |
| 2026-05-06 16:19 | 43.11024 | 0.14809 | 36009 ft | 445 kts | 342° |
| 2026-05-06 16:20 | 43.17053 | 0.12806 | 36000 ft | 445 kts | 342° |
| 2026-05-06 16:20 | 43.23077 | 0.10800 | 36015 ft | 445 kts | 342° |
| 2026-05-06 16:21 | 43.29108 | 0.08786 | 36006 ft | 445 kts | 342° |
| 2026-05-06 16:21 | 43.35103 | 0.06780 | 35998 ft | 445 kts | 342° |
| 2026-05-06 16:22 | 43.40097 | 0.05100 | 35993 ft | 444 kts | 342° |
| 2026-05-06 16:22 | 43.47084 | 0.02741 | 35998 ft | 444 kts | 342° |
| 2026-05-06 16:23 | 43.52112 | 0.01044 | 35993 ft | 444 kts | 342° |
| 2026-05-06 16:23 | 43.57380 | -0.00731 | 36004 ft | 444 kts | 342° |
| 2026-05-06 16:24 | 43.63379 | -0.02758 | 36017 ft | 443 kts | 342° |
| 2026-05-06 16:24 | 43.69367 | -0.04782 | 36006 ft | 442 kts | 343° |
| 2026-05-06 16:25 | 43.75124 | -0.06737 | 36002 ft | 441 kts | 343° |
| 2026-05-06 16:25 | 43.81079 | -0.08764 | 36004 ft | 441 kts | 343° |
| 2026-05-06 16:26 | 43.87033 | -0.10800 | 36010 ft | 440 kts | 343° |
| 2026-05-06 16:26 | 43.92946 | -0.12823 | 36007 ft | 440 kts | 343° |
| 2026-05-06 16:27 | 43.98924 | -0.14868 | 36003 ft | 439 kts | 343° |
| 2026-05-06 16:27 | 44.04819 | -0.16885 | 36010 ft | 439 kts | 343° |
| 2026-05-06 16:28 | 44.10751 | -0.18926 | 36002 ft | 439 kts | 343° |
| 2026-05-06 16:28 | 44.16680 | -0.20974 | 35991 ft | 439 kts | 343° |
| 2026-05-06 16:29 | 44.22614 | -0.23025 | 35992 ft | 439 kts | 343° |
| 2026-05-06 16:29 | 44.28547 | -0.25073 | 35991 ft | 439 kts | 343° |
| 2026-05-06 16:30 | 44.33488 | -0.26781 | 35986 ft | 439 kts | 343° |
| 2026-05-06 16:30 | 44.40430 | -0.29196 | 35986 ft | 439 kts | 343° |
| 2026-05-06 16:31 | 44.46357 | -0.31263 | 35988 ft | 439 kts | 343° |
| 2026-05-06 16:31 | 44.52287 | -0.33325 | 35984 ft | 438 kts | 343° |
| 2026-05-06 16:32 | 44.58198 | -0.35389 | 35977 ft | 438 kts | 343° |
| 2026-05-06 16:32 | 44.64080 | -0.37446 | 35982 ft | 438 kts | 344° |
| 2026-05-06 16:33 | 44.69996 | -0.39527 | 35981 ft | 438 kts | 343° |
| 2026-05-06 16:34 | 44.78863 | -0.42650 | 35979 ft | 438 kts | 343° |
| 2026-05-06 16:34 | 44.84772 | -0.44733 | 35975 ft | 437 kts | 344° |
| 2026-05-06 16:35 | 44.90675 | -0.46813 | 35976 ft | 437 kts | 343° |
| 2026-05-06 16:35 | 44.96578 | -0.48913 | 35972 ft | 437 kts | 343° |
| 2026-05-06 16:36 | 45.02471 | -0.51004 | 35965 ft | 437 kts | 344° |
| 2026-05-06 16:36 | 45.08366 | -0.53087 | 35964 ft | 436 kts | 344° |
| 2026-05-06 16:37 | 45.14247 | -0.55194 | 35962 ft | 436 kts | 343° |
| 2026-05-06 16:37 | 45.20093 | -0.57295 | 35977 ft | 435 kts | 344° |
| 2026-05-06 16:38 | 45.25969 | -0.59397 | 35963 ft | 435 kts | 344° |
| 2026-05-06 16:38 | 45.31845 | -0.61506 | 35963 ft | 435 kts | 344° |
| 2026-05-06 16:39 | 45.37720 | -0.63613 | 35971 ft | 435 kts | 344° |
| 2026-05-06 16:39 | 45.43590 | -0.65727 | 35968 ft | 435 kts | 344° |
| 2026-05-06 16:40 | 45.49467 | -0.67846 | 35960 ft | 435 kts | 344° |
| 2026-05-06 16:40 | 45.55347 | -0.69982 | 35959 ft | 435 kts | 344° |
| 2026-05-06 16:41 | 45.61180 | -0.72109 | 35964 ft | 435 kts | 344° |
| 2026-05-06 16:41 | 45.67054 | -0.74241 | 35963 ft | 435 kts | 344° |
| 2026-05-06 16:42 | 45.72931 | -0.76378 | 35965 ft | 435 kts | 344° |
| 2026-05-06 16:42 | 45.78807 | -0.78527 | 35964 ft | 435 kts | 344° |
| 2026-05-06 16:43 | 45.84676 | -0.80680 | 35969 ft | 435 kts | 344° |
| 2026-05-06 16:43 | 45.90543 | -0.82826 | 35972 ft | 435 kts | 344° |
| 2026-05-06 16:44 | 45.96412 | -0.84977 | 35974 ft | 435 kts | 344° |
| 2026-05-06 16:44 | 46.02276 | -0.87140 | 35979 ft | 435 kts | 344° |
| 2026-05-06 16:45 | 46.08141 | -0.89311 | 35971 ft | 435 kts | 344° |
| 2026-05-06 16:45 | 46.13972 | -0.91468 | 35969 ft | 435 kts | 344° |
| 2026-05-06 16:46 | 46.19835 | -0.93659 | 35976 ft | 434 kts | 341° |
| 2026-05-06 16:46 | 46.25296 | -0.97295 | 35980 ft | 432 kts | 330° |
| 2026-05-06 16:47 | 46.30583 | -1.01452 | 35976 ft | 433 kts | 330° |
| 2026-05-06 16:47 | 46.35875 | -1.05618 | 35976 ft | 433 kts | 330° |
| 2026-05-06 16:48 | 46.41167 | -1.09798 | 35976 ft | 433 kts | 330° |
| 2026-05-06 16:48 | 46.46456 | -1.13984 | 35974 ft | 433 kts | 330° |
| 2026-05-06 16:49 | 46.51750 | -1.18180 | 35977 ft | 433 kts | 330° |
| 2026-05-06 16:49 | 46.57009 | -1.22351 | 35975 ft | 433 kts | 330° |
| 2026-05-06 16:50 | 46.62299 | -1.26562 | 35982 ft | 433 kts | 330° |
| 2026-05-06 16:50 | 46.67581 | -1.30780 | 35983 ft | 433 kts | 330° |
| 2026-05-06 16:51 | 46.72864 | -1.35011 | 35980 ft | 433 kts | 330° |
| 2026-05-06 16:51 | 46.78145 | -1.39247 | 35982 ft | 433 kts | 330° |
| 2026-05-06 16:52 | 46.83425 | -1.43491 | 35980 ft | 433 kts | 330° |
| 2026-05-06 16:52 | 46.88701 | -1.47745 | 35975 ft | 433 kts | 330° |
| 2026-05-06 16:53 | 46.93981 | -1.52001 | 35971 ft | 433 kts | 330° |
| 2026-05-06 16:53 | 46.99250 | -1.56266 | 35964 ft | 433 kts | 330° |
| 2026-05-06 16:54 | 47.04521 | -1.60543 | 35957 ft | 433 kts | 330° |
| 2026-05-06 16:54 | 47.09756 | -1.64800 | 35945 ft | 432 kts | 330° |
| 2026-05-06 16:55 | 47.15015 | -1.69077 | 35980 ft | 432 kts | 330° |
| 2026-05-06 16:55 | 47.20277 | -1.73373 | 35986 ft | 432 kts | 330° |
| 2026-05-06 16:56 | 47.25544 | -1.77686 | 35978 ft | 432 kts | 330° |
| 2026-05-06 16:56 | 47.30796 | -1.81992 | 35973 ft | 432 kts | 330° |
| 2026-05-06 16:57 | 47.36049 | -1.86309 | 35970 ft | 432 kts | 330° |
| 2026-05-06 16:57 | 47.41292 | -1.90626 | 35978 ft | 432 kts | 330° |
| 2026-05-06 16:58 | 47.46529 | -1.94959 | 35973 ft | 431 kts | 330° |
| 2026-05-06 16:58 | 47.51769 | -1.99296 | 35970 ft | 432 kts | 330° |
| 2026-05-06 16:59 | 47.57012 | -2.03646 | 35974 ft | 432 kts | 330° |
| 2026-05-06 16:59 | 47.62220 | -2.07979 | 35978 ft | 432 kts | 330° |
| 2026-05-06 17:00 | 47.67461 | -2.12349 | 35968 ft | 432 kts | 330° |
| 2026-05-06 17:00 | 47.72702 | -2.16727 | 35964 ft | 431 kts | 330° |
| 2026-05-06 17:01 | 47.77934 | -2.21101 | 35964 ft | 431 kts | 330° |
| 2026-05-06 17:01 | 47.83158 | -2.25492 | 35965 ft | 432 kts | 329° |
| 2026-05-06 17:02 | 47.88396 | -2.29904 | 35966 ft | 433 kts | 329° |
| 2026-05-06 17:02 | 47.93641 | -2.34321 | 35960 ft | 433 kts | 329° |
| 2026-05-06 17:03 | 47.98881 | -2.38746 | 35968 ft | 433 kts | 329° |
| 2026-05-06 17:03 | 48.04117 | -2.43180 | 35966 ft | 433 kts | 329° |
| 2026-05-06 17:04 | 48.09329 | -2.47604 | 35964 ft | 433 kts | 329° |
| 2026-05-06 17:04 | 48.14574 | -2.52073 | 35963 ft | 434 kts | 329° |
| 2026-05-06 17:05 | 48.19817 | -2.56554 | 35967 ft | 434 kts | 329° |
| 2026-05-06 17:05 | 48.25060 | -2.61042 | 35964 ft | 434 kts | 329° |
| 2026-05-06 17:06 | 48.30303 | -2.65538 | 35972 ft | 434 kts | 329° |
| 2026-05-06 17:06 | 48.35538 | -2.70042 | 35973 ft | 434 kts | 329° |
| 2026-05-06 17:07 | 48.40775 | -2.74547 | 35973 ft | 434 kts | 329° |
| 2026-05-06 17:07 | 48.46015 | -2.79065 | 35982 ft | 434 kts | 329° |
| 2026-05-06 17:08 | 48.51248 | -2.83602 | 35981 ft | 434 kts | 329° |
| 2026-05-06 17:08 | 48.55597 | -2.87374 | 36001 ft | 434 kts | 329° |
| 2026-05-06 17:09 | 48.60826 | -2.91920 | 36002 ft | 434 kts | 329° |
| 2026-05-06 17:09 | 48.66053 | -2.96490 | 36000 ft | 434 kts | 329° |
| 2026-05-06 17:10 | 48.71286 | -3.01058 | 35999 ft | 434 kts | 329° |
| 2026-05-06 17:10 | 48.76520 | -3.05638 | 35994 ft | 434 kts | 328° |
| 2026-05-06 17:11 | 48.81752 | -3.10235 | 35998 ft | 434 kts | 328° |
| 2026-05-06 17:11 | 48.86981 | -3.14830 | 36001 ft | 434 kts | 328° |
| 2026-05-06 17:12 | 48.92170 | -3.19405 | 35999 ft | 434 kts | 328° |
| 2026-05-06 17:12 | 48.97386 | -3.24020 | 35999 ft | 433 kts | 328° |
| 2026-05-06 17:13 | 49.02600 | -3.28653 | 35997 ft | 433 kts | 328° |
| 2026-05-06 17:13 | 49.07815 | -3.33280 | 36002 ft | 434 kts | 328° |
| 2026-05-06 17:14 | 49.13027 | -3.37924 | 35999 ft | 433 kts | 328° |
| 2026-05-06 17:14 | 49.18238 | -3.42567 | 35997 ft | 433 kts | 328° |
| 2026-05-06 17:15 | 49.23438 | -3.47228 | 35995 ft | 433 kts | 328° |
| 2026-05-06 17:15 | 49.28647 | -3.51911 | 36006 ft | 433 kts | 328° |
| 2026-05-06 17:16 | 49.34004 | -3.56131 | 35989 ft | 435 kts | 338° |
| 2026-05-06 17:16 | 49.39683 | -3.59343 | 35992 ft | 435 kts | 338° |
| 2026-05-06 17:17 | 49.45327 | -3.62561 | 35990 ft | 435 kts | 338° |
| 2026-05-06 17:17 | 49.51002 | -3.65817 | 35995 ft | 435 kts | 338° |
| 2026-05-06 17:18 | 49.56677 | -3.69072 | 36002 ft | 435 kts | 338° |
| 2026-05-06 17:18 | 49.62342 | -3.72342 | 35997 ft | 434 kts | 338° |
| 2026-05-06 17:19 | 49.68066 | -3.75365 | 35997 ft | 436 kts | 346° |
| 2026-05-06 17:19 | 49.74132 | -3.75910 | 35999 ft | 440 kts | 2° |
| 2026-05-06 17:20 | 49.80238 | -3.75179 | 35996 ft | 440 kts | 2° |
| 2026-05-06 17:20 | 49.86350 | -3.74467 | 35995 ft | 441 kts | 2° |
| 2026-05-06 17:21 | 49.92463 | -3.73747 | 35997 ft | 441 kts | 2° |
| 2026-05-06 17:21 | 49.98590 | -3.73027 | 35996 ft | 441 kts | 2° |
| 2026-05-06 17:22 | 50.04709 | -3.72299 | 36003 ft | 441 kts | 2° |
| 2026-05-06 17:22 | 50.10833 | -3.71556 | 36006 ft | 441 kts | 2° |
| 2026-05-06 17:23 | 50.16962 | -3.70827 | 36014 ft | 442 kts | 2° |
| 2026-05-06 17:23 | 50.23091 | -3.70093 | 36013 ft | 442 kts | 2° |
| 2026-05-06 17:24 | 50.29220 | -3.69353 | 36014 ft | 442 kts | 2° |
| 2026-05-06 17:24 | 50.35355 | -3.68613 | 36013 ft | 442 kts | 2° |
| 2026-05-06 17:25 | 50.41492 | -3.67872 | 36017 ft | 442 kts | 2° |
| 2026-05-06 17:25 | 50.47622 | -3.66864 | 36015 ft | 443 kts | 5° |
| 2026-05-06 17:26 | 50.53736 | -3.65613 | 36013 ft | 443 kts | 5° |
| 2026-05-06 17:26 | 50.59852 | -3.64360 | 36021 ft | 443 kts | 5° |
| 2026-05-06 17:27 | 50.65975 | -3.63181 | 35873 ft | 444 kts | 5° |
| 2026-05-06 17:27 | 50.69038 | -3.62603 | 35632 ft | 443 kts | 5° |
| 2026-05-06 17:27 | 50.72094 | -3.62026 | 35379 ft | 442 kts | 5° |
| 2026-05-06 17:27 | 50.75149 | -3.61446 | 35128 ft | 442 kts | 5° |
| 2026-05-06 17:28 | 50.78205 | -3.60864 | 34894 ft | 442 kts | 5° |
| 2026-05-06 17:28 | 50.81258 | -3.60282 | 34648 ft | 442 kts | 5° |
| 2026-05-06 17:28 | 50.84316 | -3.59698 | 34416 ft | 442 kts | 5° |
| 2026-05-06 17:28 | 50.87365 | -3.59111 | 34180 ft | 442 kts | 5° |
| 2026-05-06 17:29 | 50.90415 | -3.58519 | 33934 ft | 440 kts | 5° |
| 2026-05-06 17:29 | 50.93447 | -3.57927 | 33653 ft | 439 kts | 5° |
| 2026-05-06 17:29 | 50.96472 | -3.57336 | 33375 ft | 437 kts | 5° |
| 2026-05-06 17:29 | 50.99481 | -3.56752 | 33100 ft | 435 kts | 5° |
| 2026-05-06 17:30 | 51.02437 | -3.56180 | 32827 ft | 433 kts | 5° |
| 2026-05-06 17:30 | 51.05462 | -3.55592 | 32561 ft | 431 kts | 5° |
| 2026-05-06 17:30 | 51.08426 | -3.55014 | 32287 ft | 429 kts | 5° |
| 2026-05-06 17:30 | 51.11347 | -3.54443 | 32031 ft | 427 kts | 4° |
| 2026-05-06 17:31 | 51.14294 | -3.53869 | 31766 ft | 425 kts | 4° |
| 2026-05-06 17:31 | 51.17223 | -3.53300 | 31506 ft | 424 kts | 4° |
| 2026-05-06 17:31 | 51.20146 | -3.52732 | 31250 ft | 422 kts | 4° |
| 2026-05-06 17:31 | 51.23057 | -3.52164 | 30994 ft | 420 kts | 4° |
| 2026-05-06 17:32 | 51.25959 | -3.51593 | 30743 ft | 419 kts | 4° |
| 2026-05-06 17:32 | 51.28843 | -3.51023 | 30510 ft | 417 kts | 4° |
| 2026-05-06 17:32 | 51.31718 | -3.50454 | 30270 ft | 415 kts | 4° |
| 2026-05-06 17:32 | 51.34581 | -3.49888 | 30007 ft | 413 kts | 4° |
| 2026-05-06 17:33 | 51.37433 | -3.49326 | 29709 ft | 412 kts | 4° |
| 2026-05-06 17:33 | 51.40270 | -3.48766 | 29429 ft | 410 kts | 4° |
| 2026-05-06 17:33 | 51.43093 | -3.48210 | 29143 ft | 408 kts | 4° |
| 2026-05-06 17:33 | 51.45902 | -3.47663 | 28862 ft | 406 kts | 4° |
| 2026-05-06 17:34 | 51.48704 | -3.47111 | 28581 ft | 404 kts | 5° |
| 2026-05-06 17:34 | 51.51482 | -3.46558 | 28305 ft | 402 kts | 5° |
| 2026-05-06 17:34 | 51.54260 | -3.46004 | 28045 ft | 401 kts | 5° |
| 2026-05-06 17:34 | 51.57018 | -3.45454 | 27773 ft | 399 kts | 5° |
| 2026-05-06 17:35 | 51.59765 | -3.44906 | 27506 ft | 397 kts | 5° |
| 2026-05-06 17:35 | 51.62503 | -3.44354 | 27237 ft | 395 kts | 5° |
| 2026-05-06 17:35 | 51.65227 | -3.43808 | 26976 ft | 394 kts | 5° |
| 2026-05-06 17:36 | 51.70642 | -3.42733 | 26456 ft | 390 kts | 5° |
| 2026-05-06 17:36 | 51.73332 | -3.42200 | 26211 ft | 389 kts | 5° |
| 2026-05-06 17:36 | 51.75981 | -3.41673 | 25967 ft | 387 kts | 5° |
| 2026-05-06 17:36 | 51.78650 | -3.41135 | 25714 ft | 386 kts | 5° |
| 2026-05-06 17:37 | 51.81307 | -3.40596 | 25465 ft | 384 kts | 5° |
| 2026-05-06 17:37 | 51.83949 | -3.40060 | 25210 ft | 382 kts | 5° |
| 2026-05-06 17:37 | 51.86587 | -3.39525 | 24955 ft | 381 kts | 5° |
| 2026-05-06 17:37 | 51.89215 | -3.38993 | 24726 ft | 380 kts | 5° |
| 2026-05-06 17:38 | 51.91837 | -3.38466 | 24485 ft | 378 kts | 5° |
| 2026-05-06 17:38 | 51.94444 | -3.38016 | 24236 ft | 376 kts | 2° |
| 2026-05-06 17:38 | 51.97054 | -3.37745 | 24003 ft | 374 kts | 1° |
| 2026-05-06 17:38 | 51.99653 | -3.37583 | 23766 ft | 373 kts | 360° |
| 2026-05-06 17:39 | 52.02242 | -3.37464 | 23530 ft | 371 kts | 360° |
| 2026-05-06 17:39 | 52.04814 | -3.37345 | 23250 ft | 369 kts | 360° |
| 2026-05-06 17:39 | 52.07379 | -3.37206 | 22971 ft | 368 kts | 0° |
| 2026-05-06 17:39 | 52.09929 | -3.37043 | 22694 ft | 366 kts | 0° |
| 2026-05-06 17:40 | 52.12469 | -3.36863 | 22420 ft | 365 kts | 1° |
| 2026-05-06 17:40 | 52.15001 | -3.36677 | 22149 ft | 364 kts | 1° |
| 2026-05-06 17:40 | 52.17520 | -3.36488 | 21880 ft | 362 kts | 1° |
| 2026-05-06 17:40 | 52.20038 | -3.36298 | 21625 ft | 362 kts | 1° |
| 2026-05-06 17:41 | 52.22539 | -3.36109 | 21195 ft | 359 kts | 1° |
| 2026-05-06 17:41 | 52.25049 | -3.35921 | 20556 ft | 362 kts | 1° |
| 2026-05-06 17:41 | 52.27576 | -3.35735 | 19935 ft | 365 kts | 1° |
| 2026-05-06 17:41 | 52.30111 | -3.35551 | 19435 ft | 364 kts | 0° |
| 2026-05-06 17:42 | 52.32634 | -3.35373 | 18947 ft | 363 kts | 0° |
| 2026-05-06 17:42 | 52.35144 | -3.35196 | 18470 ft | 362 kts | 0° |
| 2026-05-06 17:42 | 52.37666 | -3.35019 | 17947 ft | 361 kts | 0° |
| 2026-05-06 17:42 | 52.40167 | -3.34839 | 17398 ft | 360 kts | 1° |
| 2026-05-06 17:43 | 52.42661 | -3.34657 | 16869 ft | 359 kts | 1° |
| 2026-05-06 17:43 | 52.45155 | -3.34472 | 16339 ft | 358 kts | 1° |
| 2026-05-06 17:43 | 52.47642 | -3.34286 | 15827 ft | 357 kts | 1° |
| 2026-05-06 17:43 | 52.50126 | -3.34096 | 15323 ft | 357 kts | 0° |
| 2026-05-06 17:44 | 52.52599 | -3.33905 | 14826 ft | 356 kts | 0° |
| 2026-05-06 17:44 | 52.55067 | -3.33717 | 14334 ft | 354 kts | 0° |
| 2026-05-06 17:44 | 52.57528 | -3.33533 | 13847 ft | 353 kts | 0° |
| 2026-05-06 17:44 | 52.59971 | -3.33353 | 13312 ft | 351 kts | 0° |
| 2026-05-06 17:45 | 52.62400 | -3.33075 | 12767 ft | 350 kts | 6° |
| 2026-05-06 17:45 | 52.64757 | -3.32091 | 12258 ft | 349 kts | 18° |
| 2026-05-06 17:45 | 52.67032 | -3.30732 | 11739 ft | 347 kts | 18° |
| 2026-05-06 17:45 | 52.69287 | -3.29384 | 11232 ft | 344 kts | 18° |
| 2026-05-06 17:46 | 52.71499 | -3.28058 | 10738 ft | 341 kts | 18° |
| 2026-05-06 17:46 | 52.73712 | -3.26732 | 10247 ft | 334 kts | 18° |
| 2026-05-06 17:46 | 52.75846 | -3.25456 | 9744 ft | 319 kts | 18° |
| 2026-05-06 17:46 | 52.77891 | -3.24233 | 9203 ft | 306 kts | 18° |
| 2026-05-06 17:47 | 52.79883 | -3.23036 | 8669 ft | 295 kts | 18° |
| 2026-05-06 17:47 | 52.81768 | -3.21903 | 8423 ft | 284 kts | 18° |
| 2026-05-06 17:47 | 52.83609 | -3.20800 | 8228 ft | 280 kts | 18° |
| 2026-05-06 17:47 | 52.85438 | -3.19705 | 8009 ft | 279 kts | 18° |
| 2026-05-06 17:48 | 52.87235 | -3.18627 | 7805 ft | 278 kts | 18° |
| 2026-05-06 17:48 | 52.89096 | -3.17651 | 7600 ft | 276 kts | 11° |
| 2026-05-06 17:48 | 52.90970 | -3.17256 | 7390 ft | 275 kts | 1° |
| 2026-05-06 17:48 | 52.92902 | -3.17120 | 7196 ft | 274 kts | 1° |
| 2026-05-06 17:49 | 52.94809 | -3.16976 | 6994 ft | 274 kts | 1° |
| 2026-05-06 17:49 | 52.96714 | -3.16830 | 6795 ft | 274 kts | 1° |
| 2026-05-06 17:49 | 52.98617 | -3.16683 | 6597 ft | 274 kts | 1° |
| 2026-05-06 17:49 | 53.00527 | -3.16533 | 6397 ft | 274 kts | 2° |
| 2026-05-06 17:50 | 53.02430 | -3.16383 | 6186 ft | 274 kts | 2° |
| 2026-05-06 17:50 | 53.04334 | -3.16232 | 5974 ft | 273 kts | 2° |
| 2026-05-06 17:50 | 53.06230 | -3.16083 | 5765 ft | 273 kts | 2° |
| 2026-05-06 17:50 | 53.08131 | -3.15933 | 5556 ft | 273 kts | 2° |
| 2026-05-06 17:51 | 53.10018 | -3.15782 | 5345 ft | 271 kts | 2° |
| 2026-05-06 17:51 | 53.11882 | -3.15633 | 5140 ft | 270 kts | 3° |
| 2026-05-06 17:51 | 53.13722 | -3.15485 | 4938 ft | 260 kts | 3° |
| 2026-05-06 17:51 | 53.15500 | -3.15340 | 4731 ft | 252 kts | 3° |
| 2026-05-06 17:52 | 53.17224 | -3.15201 | 4520 ft | 244 kts | 3° |
| 2026-05-06 17:52 | 53.18892 | -3.15068 | 4306 ft | 237 kts | 4° |
| 2026-05-06 17:52 | 53.19973 | -3.14963 | 4166 ft | 232 kts | 5° |
| 2026-05-06 17:52 | 53.21566 | -3.14729 | 3963 ft | 228 kts | 6° |
| 2026-05-06 17:53 | 53.23132 | -3.14458 | 3755 ft | 224 kts | 7° |
| 2026-05-06 17:53 | 53.24692 | -3.14179 | 3559 ft | 221 kts | 7° |
| 2026-05-06 17:53 | 53.26186 | -3.13915 | 3382 ft | 216 kts | 7° |
| 2026-05-06 17:53 | 53.27660 | -3.13662 | 3229 ft | 210 kts | 7° |
| 2026-05-06 17:54 | 53.29116 | -3.13416 | 3055 ft | 206 kts | 7° |
| 2026-05-06 17:54 | 53.30501 | -3.13083 | 2905 ft | 202 kts | 22° |
| 2026-05-06 17:54 | 53.31633 | -3.11810 | 2908 ft | 197 kts | 53° |
| 2026-05-06 17:54 | 53.32191 | -3.09774 | 2819 ft | 194 kts | 83° |
| 2026-05-06 17:55 | 53.32307 | -3.07571 | 2618 ft | 186 kts | 87° |
| 2026-05-06 17:55 | 53.32403 | -3.05434 | 2368 ft | 182 kts | 86° |
| 2026-05-06 17:55 | 53.32500 | -3.03357 | 2129 ft | 174 kts | 86° |
| 2026-05-06 17:55 | 53.32592 | -3.01422 | 1908 ft | 158 kts | 86° |
| 2026-05-06 17:56 | 53.32675 | -2.99667 | 1690 ft | 146 kts | 86° |
| 2026-05-06 17:56 | 53.32754 | -2.98007 | 1485 ft | 141 kts | 86° |
| 2026-05-06 17:56 | 53.32830 | -2.96388 | 1294 ft | 138 kts | 86° |
| 2026-05-06 17:56 | 53.32905 | -2.94787 | 1102 ft | 138 kts | 86° |
| 2026-05-06 17:57 | 53.32980 | -2.93198 | 906 ft | 137 kts | 85° |
| 2026-05-06 17:57 | 53.33053 | -2.91614 | 705 ft | 136 kts | 85° |
| 2026-05-06 17:57 | 53.33135 | -2.90037 | 538 ft | 135 kts | 85° |
| 2026-05-06 17:57 | 53.33207 | -2.88468 | 335 ft | 135 kts | 86° |
| 2026-05-06 17:58 | 53.33272 | -2.86905 | 178 ft | 134 kts | 85° |
| 2026-05-06 17:58 | 53.33337 | -2.85385 | 97 ft | 121 kts | 84° |
| 2026-05-06 17:58 | 53.33390 | -2.84239 | 94 ft | 74 kts | 84° |
| 2026-05-06 17:58 | 53.33421 | -2.83680 | 95 ft | 26 kts | 86° |
| 2026-05-06 17:59 | 53.33442 | -2.83320 | 96 ft | 22 kts | 72° |
| 2026-05-06 17:59 | 53.33524 | -2.83298 | 95 ft | 12 kts | 352° |
| 2026-05-06 17:59 | 53.33591 | -2.83355 | 95 ft | 10 kts | 308° |
| 2026-05-06 17:59 | 53.33600 | -2.83453 | 95 ft | 9 kts | 266° |
| 2026-05-06 18:00 | 53.33595 | -2.83551 | 93 ft | 8 kts | 263° |
| 2026-05-06 18:00 | 53.33592 | -2.83643 | 96 ft | 10 kts | 268° |
| 2026-05-06 18:00 | 53.33581 | -2.83885 | 96 ft | 28 kts | 266° |
| 2026-05-06 18:00 | 53.33564 | -2.84216 | 94 ft | 29 kts | 266° |
| 2026-05-06 18:01 | 53.33548 | -2.84565 | 94 ft | 31 kts | 265° |
| 2026-05-06 18:01 | 53.33537 | -2.84872 | 96 ft | 26 kts | 267° |
| 2026-05-06 18:01 | 53.33521 | -2.85177 | 97 ft | 27 kts | 267° |
| 2026-05-06 18:01 | 53.33509 | -2.85430 | 95 ft | 16 kts | 267° |
| 2026-05-06 18:02 | 53.33569 | -2.85511 | 97 ft | 11 kts | 355° |
| 2026-05-06 18:02 | 53.33579 | -2.85512 | 96 ft | 0 kts | 356° |
| 2026-05-06 18:02 | 53.33594 | -2.85522 | 97 ft | 9 kts | 331° |
| 2026-05-06 18:02 | 53.33620 | -2.85646 | 95 ft | 9 kts | 327° |
| 2026-05-06 18:03 | 53.33645 | -2.85651 | 94 ft | 1 kts | 351° |
| 2026-05-06 18:03 | 53.33654 | -2.85653 | 94 ft | 0 kts | 354° |